createdAt,value
2018-09-22T00:00:38.211Z,20.87
2018-09-22T00:03:07.010Z,21.80
2018-09-22T00:05:35.830Z,22.90
2018-09-22T00:08:04.662Z,20.13
2018-09-22T00:10:33.659Z,21.33
2018-09-22T00:13:02.454Z,22.20
2018-09-22T00:15:31.254Z,22.47
2018-09-22T00:18:00.014Z,20.93
2018-09-22T00:20:28.810Z,20.90
2018-09-22T00:22:57.611Z,20.40
2018-09-22T00:25:26.519Z,21.37
2018-09-22T00:27:55.291Z,21.00
2018-09-22T00:30:24.110Z,19.87
2018-09-22T00:32:52.919Z,20.43
2018-09-22T00:35:21.751Z,21.07
2018-09-22T00:37:50.879Z,20.57
2018-09-22T00:40:19.692Z,21.90
2018-09-22T00:42:48.479Z,20.30
2018-09-22T00:45:17.654Z,21.80
2018-09-22T00:47:46.545Z,20.90
2018-09-22T00:50:15.383Z,21.60
2018-09-22T00:52:44.182Z,20.33
2018-09-22T00:55:12.969Z,22.53
2018-09-22T00:57:41.831Z,20.10
2018-09-22T01:00:12.084Z,19.77
2018-09-22T01:02:41.239Z,20.13
2018-09-22T01:05:10.061Z,20.13
2018-09-22T01:07:38.933Z,19.80
2018-09-22T01:10:07.762Z,22.03
2018-09-22T01:12:36.609Z,20.53
2018-09-22T01:15:05.953Z,21.00
2018-09-22T01:17:34.811Z,22.27
2018-09-22T01:20:03.772Z,20.07
2018-09-22T01:22:32.579Z,21.57
2018-09-22T01:25:01.383Z,20.40
2018-09-22T01:27:30.246Z,19.20
2018-09-22T01:29:59.022Z,19.67
2018-09-22T01:32:27.921Z,20.07
2018-09-22T01:34:56.732Z,22.43
2018-09-22T01:37:25.643Z,21.40
2018-09-22T01:39:54.468Z,22.80
2018-09-22T01:42:23.251Z,21.70
2018-09-22T01:44:52.071Z,20.73
2018-09-22T01:47:20.968Z,21.83
2018-09-22T01:49:49.859Z,23.57
2018-09-22T01:52:18.718Z,20.97
2018-09-22T01:54:47.501Z,20.00
2018-09-22T01:57:16.314Z,22.27
2018-09-22T01:59:45.110Z,21.23
2018-09-22T02:02:13.921Z,19.50
2018-09-22T02:04:42.752Z,20.40
2018-09-22T02:07:11.596Z,21.13
2018-09-22T02:09:40.399Z,21.80
2018-09-22T02:12:09.179Z,19.10
2018-09-22T02:14:37.966Z,22.20
2018-09-22T02:17:06.841Z,20.93
2018-09-22T02:19:35.659Z,23.60
2018-09-22T02:22:04.454Z,21.77
2018-09-22T02:24:33.235Z,22.60
2018-09-22T02:27:02.111Z,23.90
2018-09-22T02:29:30.914Z,21.80
2018-09-22T02:31:59.725Z,24.83
2018-09-22T02:34:28.603Z,22.53
2018-09-22T02:36:57.694Z,23.20
2018-09-22T02:39:26.474Z,23.20
2018-09-22T02:41:55.331Z,21.50
2018-09-22T02:44:24.228Z,15.83
2018-09-22T02:46:53.103Z,8.27
2018-09-22T02:49:21.886Z,4.20
2018-09-22T02:51:50.700Z,3.30
2018-09-22T02:54:19.611Z,2.07
2018-09-22T02:56:48.499Z,2.00
2018-09-22T02:59:21.334Z,2.60
2018-09-22T03:01:53.090Z,1.70
2018-09-22T03:04:21.894Z,2.00
2018-09-22T03:06:50.865Z,1.30
2018-09-22T03:09:19.626Z,1.00
2018-09-22T03:11:48.438Z,1.60
2018-09-22T03:14:17.235Z,1.10
2018-09-22T03:16:46.023Z,1.20
2018-09-22T03:19:14.811Z,1.30
2018-09-22T03:21:43.630Z,0.90
2018-09-22T03:24:12.426Z,1.07
2018-09-22T03:26:41.298Z,0.80
2018-09-22T03:29:10.351Z,1.17
2018-09-22T03:31:39.151Z,0.60
2018-09-22T03:34:07.971Z,0.70
2018-09-22T03:36:36.890Z,1.27
2018-09-22T03:39:08.236Z,0.80
2018-09-22T03:41:37.166Z,0.97
2018-09-22T03:44:06.938Z,1.00
2018-09-22T03:46:35.830Z,0.90
2018-09-22T03:49:04.669Z,1.00
2018-09-22T03:51:33.487Z,0.80
2018-09-22T03:54:02.301Z,0.93
2018-09-22T03:56:31.192Z,1.07
2018-09-22T03:59:00.005Z,0.70
2018-09-22T04:01:28.852Z,0.90
2018-09-22T04:03:58.151Z,1.03
2018-09-22T04:06:27.031Z,0.87
2018-09-22T04:08:55.867Z,1.10
2018-09-22T04:11:24.669Z,1.20
2018-09-22T04:13:53.487Z,0.90
2018-09-22T04:16:22.379Z,1.10
2018-09-22T04:18:51.162Z,0.90
2018-09-22T04:21:19.974Z,0.90
2018-09-22T04:23:48.815Z,0.80
2018-09-22T04:26:17.655Z,0.87
2018-09-22T04:28:46.470Z,0.73
2018-09-22T04:31:15.270Z,0.90
2018-09-22T04:33:44.079Z,0.77
2018-09-22T04:36:12.894Z,1.27
2018-09-22T04:38:41.712Z,0.73
2018-09-22T04:41:10.595Z,0.90
2018-09-22T04:43:39.414Z,1.23
2018-09-22T04:46:08.498Z,0.90
2018-09-22T04:48:37.294Z,0.80
2018-09-22T04:51:06.131Z,1.03
2018-09-22T04:53:34.950Z,0.77
2018-09-22T04:56:03.823Z,0.90
2018-09-22T04:58:32.625Z,0.90
2018-09-22T05:01:01.407Z,0.70
2018-09-22T05:03:30.186Z,1.20
2018-09-22T05:05:59.066Z,0.80
2018-09-22T05:08:27.871Z,5.13
2018-09-22T05:10:56.662Z,3.93
2018-09-22T05:13:25.515Z,0.90
2018-09-22T05:15:54.475Z,2.20
2018-09-22T05:18:23.292Z,2.13
2018-09-22T05:20:52.220Z,0.90
2018-09-22T05:23:21.019Z,1.03
2018-09-22T05:25:49.891Z,0.70
2018-09-22T05:28:18.899Z,0.90
2018-09-22T05:30:47.715Z,0.90
2018-09-22T05:33:16.631Z,1.03
2018-09-22T05:35:45.455Z,1.10
2018-09-22T05:38:14.313Z,0.87
2018-09-22T05:40:43.222Z,1.07
2018-09-22T05:43:12.809Z,0.93
2018-09-22T05:45:42.878Z,1.27
2018-09-22T05:48:11.685Z,1.60
2018-09-22T05:50:40.493Z,1.23
2018-09-22T05:53:10.029Z,1.30
2018-09-22T05:55:38.964Z,1.60
2018-09-22T05:58:07.825Z,1.40
2018-09-22T06:00:38.288Z,1.10
2018-09-22T06:03:08.807Z,1.17
2018-09-22T06:05:38.023Z,1.53
2018-09-22T06:08:07.378Z,2.00
2018-09-22T06:10:36.636Z,1.13
2018-09-22T06:13:05.880Z,1.83
2018-09-22T06:15:34.760Z,1.90
2018-09-22T06:18:03.732Z,1.80
2018-09-22T06:20:32.795Z,1.47
2018-09-22T06:23:01.866Z,2.43
2018-09-22T06:25:30.869Z,1.77
2018-09-22T06:27:59.786Z,1.20
2018-09-22T06:30:33.869Z,1.77
2018-09-22T06:33:03.643Z,0.77
2018-09-22T06:35:32.635Z,1.47
2018-09-22T06:38:01.528Z,1.97
2018-09-22T06:40:30.541Z,1.30
2018-09-22T06:42:59.475Z,1.63
2018-09-22T06:45:28.561Z,1.77
2018-09-22T06:47:57.969Z,1.80
2018-09-22T06:50:26.990Z,1.40
2018-09-22T06:52:56.103Z,1.80
2018-09-22T06:55:25.268Z,1.60
2018-09-22T06:57:54.396Z,1.60
2018-09-22T07:00:31.223Z,1.73
2018-09-22T07:03:00.589Z,2.40
2018-09-22T07:05:29.699Z,2.20
2018-09-22T07:07:58.745Z,2.30
2018-09-22T07:10:27.627Z,1.70
2018-09-22T07:12:57.435Z,1.20
2018-09-22T07:15:26.514Z,1.40
2018-09-22T07:17:55.752Z,1.20
2018-09-22T07:20:24.860Z,2.20
2018-09-22T07:22:59.374Z,1.53
2018-09-22T07:25:28.616Z,1.40
2018-09-22T07:27:57.631Z,1.63
2018-09-22T07:30:26.620Z,2.20
2018-09-22T07:32:55.473Z,3.20
2018-09-22T07:35:25.031Z,3.77
2018-09-22T07:37:54.268Z,2.23
2018-09-22T07:40:23.932Z,3.80
2018-09-22T07:42:53.340Z,2.00
2018-09-22T07:45:23.008Z,2.43
2018-09-22T07:47:52.067Z,1.60
2018-09-22T07:50:21.448Z,1.83
2018-09-22T07:52:50.458Z,1.90
2018-09-22T07:55:19.395Z,2.00
2018-09-22T07:57:48.481Z,2.37
2018-09-22T08:00:19.469Z,1.60
2018-09-22T08:02:48.484Z,1.60
2018-09-22T08:05:17.383Z,1.40
2018-09-22T08:07:46.493Z,1.93
2018-09-22T08:10:15.799Z,1.63
2018-09-22T08:12:44.940Z,1.70
2018-09-22T08:15:13.877Z,1.10
2018-09-22T08:17:43.008Z,1.13
2018-09-22T08:20:12.804Z,1.43
2018-09-22T08:22:42.674Z,1.40
2018-09-22T08:25:12.076Z,1.60
2018-09-22T08:27:41.418Z,1.30
2018-09-22T08:30:11.528Z,1.40
2018-09-22T08:32:40.607Z,1.60
2018-09-22T08:35:10.331Z,2.40
2018-09-22T08:37:39.379Z,1.50
2018-09-22T08:40:08.888Z,1.90
2018-09-22T08:42:37.847Z,1.60
2018-09-22T08:45:07.108Z,2.37
2018-09-22T08:47:37.120Z,1.53
2018-09-22T08:50:06.984Z,1.30
2018-09-22T08:52:36.574Z,1.77
2018-09-22T08:55:05.876Z,1.97
2018-09-22T08:57:34.941Z,2.33
2018-09-22T09:00:04.331Z,2.03
2018-09-22T09:02:33.374Z,2.13
2018-09-22T09:05:02.893Z,2.40
2018-09-22T09:07:31.964Z,1.90
2018-09-22T09:10:01.342Z,2.27
2018-09-22T09:12:30.402Z,1.83
2018-09-22T09:14:59.811Z,2.20
2018-09-22T09:17:28.948Z,2.30
2018-09-22T09:19:57.875Z,2.73
2018-09-22T09:22:27.217Z,1.77
2018-09-22T09:24:56.630Z,2.13
2018-09-22T09:27:25.974Z,2.00
2018-09-22T09:29:54.882Z,2.23
2018-09-22T09:32:23.957Z,2.93
2018-09-22T09:34:53.222Z,3.40
2018-09-22T09:37:22.428Z,1.97
2018-09-22T09:39:51.331Z,1.93
2018-09-22T09:42:21.235Z,2.83
2018-09-22T09:44:50.408Z,2.03
2018-09-22T09:47:19.705Z,2.53
2018-09-22T09:49:52.017Z,1.83
2018-09-22T09:52:21.427Z,2.07
2018-09-22T09:54:51.208Z,2.13
2018-09-22T09:57:20.453Z,2.37
2018-09-22T09:59:49.895Z,2.70
2018-09-22T10:02:19.264Z,1.80
2018-09-22T10:04:48.885Z,2.17
2018-09-22T10:07:17.883Z,1.70
2018-09-22T10:09:47.718Z,1.87
2018-09-22T10:12:17.287Z,1.77
2018-09-22T10:14:46.280Z,1.90
2018-09-22T10:17:15.365Z,2.20
2018-09-22T10:19:45.100Z,1.67
2018-09-22T10:22:14.753Z,2.40
2018-09-22T10:24:44.420Z,1.93
2018-09-22T10:27:13.647Z,2.30
2018-09-22T10:29:43.142Z,1.90
2018-09-22T10:32:12.540Z,2.20
2018-09-22T10:34:42.039Z,2.10
2018-09-22T10:37:11.410Z,2.10
2018-09-22T10:39:41.638Z,2.70
2018-09-22T10:42:11.595Z,3.13
2018-09-22T10:44:40.989Z,2.70
2018-09-22T10:47:11.559Z,2.60
2018-09-22T10:49:40.781Z,2.33
2018-09-22T10:52:09.809Z,2.47
2018-09-22T10:54:39.070Z,1.80
2018-09-22T10:57:08.065Z,3.77
2018-09-22T10:59:36.907Z,2.27
2018-09-22T11:02:06.919Z,2.00
2018-09-22T11:04:35.807Z,2.00
2018-09-22T11:07:04.932Z,1.63
2018-09-22T11:09:33.850Z,2.10
2018-09-22T11:12:03.774Z,2.70
2018-09-22T11:14:32.643Z,2.30
2018-09-22T11:17:01.531Z,2.43
2018-09-22T11:19:33.248Z,8.70
2018-09-22T11:22:02.093Z,12.80
2018-09-22T11:24:30.917Z,7.47
2018-09-22T11:26:59.971Z,3.17
2018-09-22T11:29:28.914Z,3.03
2018-09-22T11:31:57.721Z,2.83
2018-09-22T11:34:26.583Z,2.47
2018-09-22T11:36:55.533Z,2.67
2018-09-22T11:39:24.569Z,2.20
2018-09-22T11:41:53.399Z,3.10
2018-09-22T11:44:22.251Z,2.23
2018-09-22T11:46:51.187Z,2.70
2018-09-22T11:49:19.993Z,1.97
2018-09-22T11:51:48.851Z,2.13
2018-09-22T11:54:17.735Z,2.00
2018-09-22T11:56:46.663Z,2.30
2018-09-22T11:59:16.435Z,1.70
2018-09-22T12:01:47.431Z,1.80
2018-09-22T12:04:16.844Z,2.23
2018-09-22T12:06:46.079Z,2.10
2018-09-22T12:09:15.032Z,2.50
2018-09-22T12:11:43.987Z,2.27
2018-09-22T12:14:12.905Z,2.27
2018-09-22T12:16:41.836Z,2.33
2018-09-22T12:19:10.678Z,2.23
2018-09-22T12:21:39.509Z,2.40
2018-09-22T12:24:08.385Z,2.30
2018-09-22T12:26:37.287Z,3.10
2018-09-22T12:29:06.646Z,2.80
2018-09-22T12:31:35.547Z,2.57
2018-09-22T12:34:04.490Z,3.20
2018-09-22T12:36:33.395Z,3.00
2018-09-22T12:39:02.397Z,2.87
2018-09-22T12:41:31.257Z,2.60
2018-09-22T12:44:00.217Z,2.53
2018-09-22T12:46:29.199Z,3.00
2018-09-22T12:48:58.032Z,2.63
2018-09-22T12:51:26.908Z,2.30
2018-09-22T12:53:55.763Z,7.57
2018-09-22T12:56:24.730Z,3.20
2018-09-22T12:58:53.646Z,2.87
2018-09-22T13:01:22.490Z,2.40
2018-09-22T13:03:51.411Z,3.10
2018-09-22T13:06:20.296Z,3.20
2018-09-22T13:08:49.399Z,2.80
2018-09-22T13:11:18.626Z,2.67
2018-09-22T13:13:47.503Z,3.10
2018-09-22T13:16:16.363Z,2.57
2018-09-22T13:18:45.223Z,2.67
2018-09-22T13:21:14.071Z,2.93
2018-09-22T13:23:42.882Z,3.57
2018-09-22T13:26:11.792Z,2.80
2018-09-22T13:28:40.682Z,3.13
2018-09-22T13:31:09.574Z,2.80
2018-09-22T13:33:39.092Z,3.40
2018-09-22T13:36:08.016Z,2.30
2018-09-22T13:38:37.057Z,3.30
2018-09-22T13:41:06.247Z,2.87
2018-09-22T13:43:35.116Z,3.10
2018-09-22T13:46:04.039Z,2.60
2018-09-22T13:48:32.888Z,2.67
2018-09-22T13:51:01.747Z,2.80
2018-09-22T13:53:30.600Z,3.07
2018-09-22T13:55:59.555Z,2.33
2018-09-22T13:58:28.459Z,2.50
2018-09-22T14:00:57.283Z,2.73
2018-09-22T14:03:26.126Z,2.53
2018-09-22T14:05:55.501Z,2.73
2018-09-22T14:08:24.683Z,4.13
2018-09-22T14:10:54.068Z,2.80
2018-09-22T14:13:23.212Z,3.30
2018-09-22T14:15:52.529Z,3.00
2018-09-22T14:18:21.448Z,3.23
2018-09-22T14:20:50.843Z,3.40
2018-09-22T14:23:19.721Z,2.90
2018-09-22T14:25:48.731Z,2.93
2018-09-22T14:28:17.592Z,3.20
2018-09-22T14:30:46.450Z,2.53
2018-09-22T14:33:15.292Z,3.30
2018-09-22T14:35:44.139Z,3.10
2018-09-22T14:38:13.461Z,2.83
2018-09-22T14:40:42.538Z,2.90
2018-09-22T14:43:11.959Z,3.60
2018-09-22T14:45:40.876Z,3.23
2018-09-22T14:48:09.807Z,3.30
2018-09-22T14:50:38.654Z,2.70
2018-09-22T14:53:08.019Z,3.10
2018-09-22T14:55:36.915Z,3.30
2018-09-22T14:58:06.946Z,3.00
2018-09-22T15:00:36.587Z,2.93
2018-09-22T15:03:05.659Z,2.33
2018-09-22T15:05:34.527Z,2.70
2018-09-22T15:08:03.375Z,2.90
2018-09-22T15:10:32.679Z,3.13
2018-09-22T15:13:01.611Z,3.03
2018-09-22T15:15:30.559Z,2.47
2018-09-22T15:18:00.191Z,3.20
2018-09-22T15:20:29.159Z,1.83
2018-09-22T15:22:58.362Z,1.87
2018-09-22T15:25:27.246Z,1.40
2018-09-22T15:27:56.220Z,1.60
2018-09-22T15:30:25.331Z,1.37
2018-09-22T15:32:54.262Z,2.00
2018-09-22T15:35:23.102Z,1.70
2018-09-22T15:37:52.605Z,2.67
2018-09-22T15:40:21.702Z,1.80
2018-09-22T15:42:50.696Z,1.10
2018-09-22T15:45:20.289Z,1.90
2018-09-22T15:47:49.158Z,2.07
2018-09-22T15:50:18.386Z,1.30
2018-09-22T15:52:47.235Z,2.00
2018-09-22T15:55:16.844Z,2.53
2018-09-22T15:57:45.992Z,2.67
2018-09-22T16:00:16.479Z,2.70
2018-09-22T16:02:48.511Z,2.37
2018-09-22T16:05:17.876Z,1.80
2018-09-22T16:07:47.048Z,2.00
2018-09-22T16:10:16.416Z,2.40
2018-09-22T16:12:45.607Z,2.50
2018-09-22T16:15:14.497Z,2.50
2018-09-22T16:17:46.767Z,2.50
2018-09-22T16:20:15.695Z,2.33
2018-09-22T16:22:44.700Z,2.23
2018-09-22T16:25:13.951Z,1.80
2018-09-22T16:27:43.068Z,2.33
2018-09-22T16:30:12.381Z,2.10
2018-09-22T16:32:41.307Z,2.23
2018-09-22T16:35:10.248Z,2.23
2018-09-22T16:37:39.237Z,2.20
2018-09-22T16:40:08.143Z,2.33
2018-09-22T16:42:36.951Z,3.20
2018-09-22T16:45:05.847Z,4.00
2018-09-22T16:47:34.787Z,4.20
2018-09-22T16:50:03.718Z,2.57
2018-09-22T16:52:32.550Z,2.37
2018-09-22T16:55:01.418Z,2.70
2018-09-22T16:57:30.270Z,2.20
2018-09-22T16:59:59.092Z,2.60
2018-09-22T17:02:27.902Z,2.70
2018-09-22T17:04:56.723Z,2.50
2018-09-22T17:07:25.631Z,3.63
2018-09-22T17:09:54.482Z,4.70
2018-09-22T17:12:23.312Z,3.30
2018-09-22T17:14:52.230Z,4.03
2018-09-22T17:17:21.079Z,3.70
2018-09-22T17:19:49.915Z,3.37
2018-09-22T17:22:18.734Z,5.77
2018-09-22T17:24:47.560Z,3.27
2018-09-22T17:27:16.468Z,2.80
2018-09-22T17:29:45.319Z,2.33
2018-09-22T17:32:14.227Z,3.23
2018-09-22T17:34:43.063Z,3.13
2018-09-22T17:37:12.058Z,3.60
2018-09-22T17:39:42.010Z,4.37
2018-09-22T17:42:11.814Z,4.23
2018-09-22T17:44:40.963Z,3.83
2018-09-22T17:47:10.583Z,3.03
2018-09-22T17:49:40.209Z,2.17
2018-09-22T17:52:09.050Z,2.97
2018-09-22T17:54:38.823Z,2.47
2018-09-22T17:57:07.886Z,2.33
2018-09-22T17:59:36.763Z,2.37
2018-09-22T18:02:06.103Z,2.57
2018-09-22T18:04:34.956Z,1.73
2018-09-22T18:07:03.823Z,2.70
2018-09-22T18:09:32.719Z,2.50
2018-09-22T18:12:02.024Z,2.50
2018-09-22T18:14:31.635Z,2.43
2018-09-22T18:17:00.520Z,4.07
2018-09-22T18:19:29.423Z,2.20
2018-09-22T18:21:58.325Z,2.33
2018-09-22T18:24:27.140Z,2.40
2018-09-22T18:26:56.069Z,2.40
2018-09-22T18:29:24.930Z,3.17
2018-09-22T18:31:53.800Z,2.77
2018-09-22T18:34:23.217Z,2.47
2018-09-22T18:36:52.139Z,2.67
2018-09-22T18:39:20.959Z,2.70
2018-09-22T18:41:49.807Z,2.77
2018-09-22T18:44:18.664Z,2.63
2018-09-22T18:46:47.784Z,5.17
2018-09-22T18:49:17.122Z,6.47
2018-09-22T18:51:47.056Z,6.80
2018-09-22T18:54:16.440Z,5.10
2018-09-22T18:56:46.008Z,5.23
2018-09-22T18:59:15.899Z,5.30
2018-09-22T19:01:46.371Z,5.10
2018-09-22T19:04:15.780Z,3.40
2018-09-22T19:09:24.232Z,2.77
2018-09-22T19:11:53.440Z,1.90
2018-09-22T19:14:32.650Z,2.63
2018-09-22T19:17:05.979Z,2.20
2018-09-22T19:21:43.246Z,2.37
2018-09-22T19:24:21.173Z,2.40
2018-09-22T19:26:55.668Z,2.60
2018-09-22T19:29:30.514Z,2.90
2018-09-22T19:32:03.089Z,2.63
2018-09-22T19:34:52.308Z,2.70
2018-09-22T19:37:25.779Z,2.40
2018-09-22T19:39:58.521Z,2.40
2018-09-22T19:42:40.978Z,2.80
2018-09-22T19:45:16.367Z,2.50
2018-09-22T19:47:57.519Z,2.40
2018-09-22T19:50:32.091Z,3.40
2018-09-22T19:53:01.406Z,2.20
2018-09-22T19:55:30.420Z,3.20
2018-09-22T19:57:59.388Z,3.30
2018-09-22T20:00:29.303Z,2.77
2018-09-22T20:02:58.115Z,2.57
2018-09-22T20:05:27.840Z,2.13
2018-09-22T20:07:56.788Z,2.70
2018-09-22T20:10:25.803Z,2.80
2018-09-22T20:12:54.655Z,2.50
2018-09-22T20:15:23.512Z,5.20
2018-09-22T20:17:52.433Z,2.53
2018-09-22T20:20:22.196Z,2.83
2018-09-22T20:22:51.144Z,2.70
2018-09-22T20:25:20.619Z,2.57
2018-09-22T20:27:50.103Z,2.30
2018-09-22T20:30:18.953Z,2.30
2018-09-22T20:32:47.784Z,2.60
2018-09-22T20:35:16.662Z,2.93
2018-09-22T20:37:45.585Z,3.27
2018-09-22T20:40:14.447Z,4.50
2018-09-22T20:42:43.280Z,4.63
2018-09-22T20:45:12.107Z,2.40
2018-09-22T20:47:41.055Z,2.63
2018-09-22T20:50:09.897Z,3.73
2018-09-22T20:52:38.888Z,3.60
2018-09-22T20:55:07.796Z,3.77
2018-09-22T20:57:36.720Z,3.33
2018-09-22T21:00:07.262Z,3.17
2018-09-22T21:02:36.104Z,3.53
2018-09-22T21:05:04.999Z,3.30
2018-09-22T21:07:34.160Z,4.33
2018-09-22T21:10:03.032Z,3.30
2018-09-22T21:12:31.920Z,3.57
2018-09-22T21:15:00.790Z,4.00
2018-09-22T21:17:29.703Z,3.90
2018-09-22T21:19:58.548Z,3.77
2018-09-22T21:22:27.395Z,3.00
2018-09-22T21:24:56.218Z,3.50
2018-09-22T21:27:25.148Z,2.80
2018-09-22T21:29:53.975Z,3.00
2018-09-22T21:32:22.814Z,3.33
2018-09-22T21:34:51.752Z,3.00
2018-09-22T21:37:20.603Z,2.77
2018-09-22T21:39:50.219Z,2.70
2018-09-22T21:42:19.207Z,2.10
2018-09-22T21:44:48.123Z,1.83
2018-09-22T21:47:17.039Z,2.47
2018-09-22T21:49:45.847Z,3.20
2018-09-22T21:52:14.667Z,2.13
2018-09-22T21:54:43.528Z,3.00
2018-09-22T21:57:12.343Z,2.87
2018-09-22T21:59:41.275Z,2.50
2018-09-22T22:02:10.168Z,2.37
2018-09-22T22:04:39.070Z,2.10
2018-09-22T22:07:08.187Z,2.10
2018-09-22T22:09:36.995Z,2.20
2018-09-22T22:12:05.944Z,2.20
2018-09-22T22:14:34.806Z,2.37
2018-09-22T22:17:03.682Z,2.87
2018-09-22T22:19:32.497Z,2.20
2018-09-22T22:22:01.314Z,2.20
2018-09-22T22:24:30.159Z,2.07
2018-09-22T22:26:59.147Z,2.57
2018-09-22T22:29:27.954Z,2.40
2018-09-22T22:31:56.790Z,2.60
2018-09-22T22:34:25.624Z,2.63
2018-09-22T22:36:54.535Z,1.90
2018-09-22T22:39:23.370Z,2.03
2018-09-22T22:41:52.206Z,2.50
2018-09-22T22:44:21.039Z,2.67
2018-09-22T22:46:49.935Z,2.27
2018-09-22T22:49:18.755Z,2.33
2018-09-22T22:51:47.599Z,2.50
2018-09-22T22:54:16.436Z,2.23
2018-09-22T22:56:45.294Z,2.63
2018-09-22T22:59:15.992Z,1.70
2018-09-22T23:01:44.927Z,2.40
2018-09-22T23:04:13.773Z,2.27
2018-09-22T23:06:42.759Z,2.07
2018-09-22T23:09:11.574Z,1.87
2018-09-22T23:11:40.407Z,1.90
2018-09-22T23:14:09.286Z,2.03
2018-09-22T23:16:38.194Z,1.83
2018-09-22T23:19:07.059Z,2.33
2018-09-22T23:21:36.034Z,1.70
2018-09-22T23:24:04.902Z,2.00
2018-09-22T23:26:33.860Z,2.13
2018-09-22T23:29:02.715Z,2.10
2018-09-22T23:31:31.563Z,2.17
2018-09-22T23:34:00.387Z,2.43
2018-09-22T23:36:29.215Z,2.10
2018-09-22T23:38:58.147Z,1.50
2018-09-22T23:41:26.997Z,2.53
2018-09-22T23:43:55.852Z,2.27
2018-09-22T23:46:24.769Z,2.33
2018-09-22T23:48:53.620Z,1.90
2018-09-22T23:51:22.443Z,1.73
2018-09-22T23:53:51.267Z,1.80
2018-09-22T23:56:20.161Z,1.90
2018-09-22T23:58:49.018Z,2.30
